sensor_id;sensor_type;location;lat;lon;timestamp;pressure;altitude;pressure_sealevel;temperature;humidity
3142;BME280;1581;51.568;6.998;2022-10-31T00:01:30;101400.19;;;15.97;100.00
3142;BME280;1581;51.568;6.998;2022-10-31T00:03:58;101397.06;;;15.93;100.00
3142;BME280;1581;51.568;6.998;2022-10-31T00:06:27;101401.84;;;15.91;100.00
3142;BME280;1581;51.568;6.998;2022-10-31T00:08:58;101406.34;;;15.84;100.00
3142;BME280;1581;51.568;6.998;2022-10-31T00:11:26;101393.34;;;15.81;100.00
3142;BME280;1581;51.568;6.998;2022-10-31T00:13:54;101393.97;;;15.70;100.00
3142;BME280;1581;51.568;6.998;2022-10-31T00:16:23;101391.28;;;15.70;100.00
3142;BME280;1581;51.568;6.998;2022-10-31T00:18:53;101384.44;;;15.68;100.00
3142;BME280;1581;51.568;6.998;2022-10-31T00:21:21;101386.09;;;15.62;100.00
3142;BME280;1581;51.568;6.998;2022-10-31T00:23:51;101387.31;;;15.53;100.00
3142;BME280;1581;51.568;6.998;2022-10-31T00:26:19;101392.69;;;15.53;100.00
3142;BME280;1581;51.568;6.998;2022-10-31T00:28:47;101374.50;;;15.55;100.00
3142;BME280;1581;51.568;6.998;2022-10-31T00:31:15;101378.03;;;15.50;100.00
3142;BME280;1581;51.568;6.998;2022-10-31T00:33:43;101383.00;;;15.46;100.00
3142;BME280;1581;51.568;6.998;2022-10-31T00:36:14;101378.03;;;15.43;100.00
3142;BME280;1581;51.568;6.998;2022-10-31T00:38:43;101377.16;;;15.43;100.00
3142;BME280;1581;51.568;6.998;2022-10-31T00:41:15;101381.94;;;15.41;100.00
3142;BME280;1581;51.568;6.998;2022-10-31T00:43:43;101387.31;;;15.34;100.00
3142;BME280;1581;51.568;6.998;2022-10-31T00:46:12;101397.66;;;15.37;100.00
3142;BME280;1581;51.568;6.998;2022-10-31T00:48:39;101400.34;;;15.37;100.00
3142;BME280;1581;51.568;6.998;2022-10-31T00:51:10;101389.59;;;15.37;100.00
3142;BME280;1581;51.568;6.998;2022-10-31T00:53:37;101388.53;;;15.38;100.00
3142;BME280;1581;51.568;6.998;2022-10-31T00:56:06;101394.75;;;15.39;100.00
3142;BME280;1581;51.568;6.998;2022-10-31T00:58:35;101388.13;;;15.41;100.00
3142;BME280;1581;51.568;6.998;2022-10-31T01:01:03;101388.53;;;15.32;100.00
3142;BME280;1581;51.568;6.998;2022-10-31T01:03:32;101383.38;;;15.37;100.00
3142;BME280;1581;51.568;6.998;2022-10-31T01:06:03;101389.34;;;15.32;100.00
3142;BME280;1581;51.568;6.998;2022-10-31T01:08:31;101397.00;;;15.29;100.00
3142;BME280;1581;51.568;6.998;2022-10-31T01:11:06;101392.69;;;15.34;100.00
3142;BME280;1581;51.568;6.998;2022-10-31T01:13:35;101391.44;;;15.37;100.00
3142;BME280;1581;51.568;6.998;2022-10-31T01:16:05;101411.25;;;15.36;100.00
3142;BME280;1581;51.568;6.998;2022-10-31T01:18:33;101403.41;;;15.34;100.00
3142;BME280;1581;51.568;6.998;2022-10-31T01:21:06;101396.81;;;15.37;100.00
3142;BME280;1581;51.568;6.998;2022-10-31T01:23:34;101390.22;;;15.46;100.00
3142;BME280;1581;51.568;6.998;2022-10-31T01:26:08;101383.81;;;15.47;100.00
3142;BME280;1581;51.568;6.998;2022-10-31T01:28:39;101396.19;;;15.41;100.00
3142;BME280;1581;51.568;6.998;2022-10-31T01:31:10;101391.66;;;15.35;100.00
3142;BME280;1581;51.568;6.998;2022-10-31T01:33:39;101400.31;;;15.31;100.00
3142;BME280;1581;51.568;6.998;2022-10-31T01:36:16;101410.84;;;15.32;100.00
3142;BME280;1581;51.568;6.998;2022-10-31T01:38:44;101400.06;;;15.26;100.00
3142;BME280;1581;51.568;6.998;2022-10-31T01:41:13;101401.09;;;15.25;100.00
3142;BME280;1581;51.568;6.998;2022-10-31T01:43:51;101399.84;;;15.21;100.00
3142;BME280;1581;51.568;6.998;2022-10-31T01:46:24;101398.16;;;15.13;100.00
3142;BME280;1581;51.568;6.998;2022-10-31T01:48:53;101393.91;;;15.32;100.00
3142;BME280;1581;51.568;6.998;2022-10-31T01:51:26;101388.97;;;15.35;100.00
3142;BME280;1581;51.568;6.998;2022-10-31T01:53:59;101385.41;;;15.28;100.00
3142;BME280;1581;51.568;6.998;2022-10-31T01:56:28;101397.56;;;15.18;100.00
3142;BME280;1581;51.568;6.998;2022-10-31T01:58:58;101393.41;;;15.09;100.00
3142;BME280;1581;51.568;6.998;2022-10-31T02:01:28;101399.56;;;15.03;100.00
3142;BME280;1581;51.568;6.998;2022-10-31T02:03:56;101403.69;;;14.99;100.00
3142;BME280;1581;51.568;6.998;2022-10-31T02:06:32;101401.19;;;14.91;100.00
3142;BME280;1581;51.568;6.998;2022-10-31T02:09:04;101392.25;;;14.84;100.00
3142;BME280;1581;51.568;6.998;2022-10-31T02:11:34;101393.91;;;14.85;100.00
3142;BME280;1581;51.568;6.998;2022-10-31T02:14:04;101392.25;;;14.84;100.00
3142;BME280;1581;51.568;6.998;2022-10-31T02:16:31;101381.31;;;14.79;100.00
3142;BME280;1581;51.568;6.998;2022-10-31T02:18:59;101378.00;;;14.77;100.00
3142;BME280;1581;51.568;6.998;2022-10-31T02:21:34;101373.88;;;14.74;100.00
3142;BME280;1581;51.568;6.998;2022-10-31T02:24:52;101377.16;;;14.70;100.00
3142;BME280;1581;51.568;6.998;2022-10-31T02:28:08;101384.56;;;14.68;100.00
3142;BME280;1581;51.568;6.998;2022-10-31T02:31:00;101381.16;;;14.53;100.00
3142;BME280;1581;51.568;6.998;2022-10-31T02:33:38;101388.63;;;14.51;100.00
3142;BME280;1581;51.568;6.998;2022-10-31T02:36:14;101391.91;;;14.53;100.00
3142;BME280;1581;51.568;6.998;2022-10-31T02:38:52;101387.38;;;14.54;100.00
3142;BME280;1581;51.568;6.998;2022-10-31T02:41:31;101388.19;;;14.54;100.00
3142;BME280;1581;51.568;6.998;2022-10-31T02:44:08;101388.63;;;14.51;100.00
3142;BME280;1581;51.568;6.998;2022-10-31T02:46:47;101377.22;;;14.43;100.00
3142;BME280;1581;51.568;6.998;2022-10-31T02:49:23;101383.59;;;14.42;100.00
3142;BME280;1581;51.568;6.998;2022-10-31T02:51:53;101382.56;;;14.43;100.00
3142;BME280;1581;51.568;6.998;2022-10-31T02:54:24;101389.38;;;14.45;100.00
3142;BME280;1581;51.568;6.998;2022-10-31T02:56:56;101379.84;;;14.36;100.00
3142;BME280;1581;51.568;6.998;2022-10-31T02:59:25;101374.09;;;14.39;100.00
3142;BME280;1581;51.568;6.998;2022-10-31T03:02:09;101369.34;;;14.35;100.00
3142;BME280;1581;51.568;6.998;2022-10-31T03:05:03;101379.22;;;14.34;100.00
3142;BME280;1581;51.568;6.998;2022-10-31T03:07:47;101375.72;;;14.34;100.00
3142;BME280;1581;51.568;6.998;2022-10-31T03:10:24;101373.59;;;14.23;100.00
3142;BME280;1581;51.568;6.998;2022-10-31T03:12:59;101370.47;;;14.19;100.00
3142;BME280;1581;51.568;6.998;2022-10-31T03:15:32;101371.94;;;14.22;100.00
3142;BME280;1581;51.568;6.998;2022-10-31T03:18:07;101382.44;;;14.23;100.00
3142;BME280;1581;51.568;6.998;2022-10-31T03:20:39;101384.94;;;14.25;100.00
3142;BME280;1581;51.568;6.998;2022-10-31T03:23:12;101387.81;;;14.23;100.00
3142;BME280;1581;51.568;6.998;2022-10-31T03:25:42;101388.59;;;14.17;100.00
3142;BME280;1581;51.568;6.998;2022-10-31T03:28:13;101388.38;;;14.12;100.00
3142;BME280;1581;51.568;6.998;2022-10-31T03:30:44;101389.31;;;14.05;100.00
3142;BME280;1581;51.568;6.998;2022-10-31T03:33:19;101381.34;;;14.11;100.00
3142;BME280;1581;51.568;6.998;2022-10-31T03:35:51;101380.69;;;14.09;100.00
3142;BME280;1581;51.568;6.998;2022-10-31T03:38:21;101380.44;;;14.04;100.00
3142;BME280;1581;51.568;6.998;2022-10-31T03:40:52;101389.47;;;13.97;100.00
3142;BME280;1581;51.568;6.998;2022-10-31T03:43:28;101386.16;;;13.95;100.00
3142;BME280;1581;51.568;6.998;2022-10-31T03:45:57;101380.97;;;13.93;100.00
3142;BME280;1581;51.568;6.998;2022-10-31T03:48:32;101385.28;;;13.94;100.00
3142;BME280;1581;51.568;6.998;2022-10-31T03:51:06;101382.56;;;13.88;100.00
3142;BME280;1581;51.568;6.998;2022-10-31T03:53:42;101390.16;;;13.84;100.00
3142;BME280;1581;51.568;6.998;2022-10-31T03:56:17;101380.28;;;13.85;100.00
3142;BME280;1581;51.568;6.998;2022-10-31T03:58:53;101386.03;;;13.82;100.00
3142;BME280;1581;51.568;6.998;2022-10-31T04:01:24;101387.91;;;13.81;100.00
3142;BME280;1581;51.568;6.998;2022-10-31T04:03:55;101386.22;;;13.80;100.00
3142;BME280;1581;51.568;6.998;2022-10-31T04:06:24;101387.91;;;13.81;100.00
3142;BME280;1581;51.568;6.998;2022-10-31T04:08:57;101385.38;;;13.80;100.00
3142;BME280;1581;51.568;6.998;2022-10-31T04:11:31;101383.06;;;13.71;100.00
3142;BME280;1581;51.568;6.998;2022-10-31T04:14:00;101387.63;;;13.76;100.00
3142;BME280;1581;51.568;6.998;2022-10-31T04:16:29;101383.94;;;13.77;100.00
3142;BME280;1581;51.568;6.998;2022-10-31T04:18:58;101383.72;;;13.79;100.00
3142;BME280;1581;51.568;6.998;2022-10-31T04:21:30;101387.44;;;13.78;100.00
3142;BME280;1581;51.568;6.998;2022-10-31T04:23:58;101384.16;;;13.82;100.00
3142;BME280;1581;51.568;6.998;2022-10-31T04:26:26;101378.44;;;13.85;100.00
3142;BME280;1581;51.568;6.998;2022-10-31T04:28:53;101379.06;;;13.87;100.00
3142;BME280;1581;51.568;6.998;2022-10-31T04:31:21;101382.78;;;13.86;100.00
3142;BME280;1581;51.568;6.998;2022-10-31T04:33:49;101372.47;;;13.90;100.00
3142;BME280;1581;51.568;6.998;2022-10-31T04:36:18;101356.72;;;14.01;100.00
3142;BME280;1581;51.568;6.998;2022-10-31T04:38:45;101363.16;;;14.07;100.00
3142;BME280;1581;51.568;6.998;2022-10-31T04:41:13;101371.88;;;14.15;100.00
3142;BME280;1581;51.568;6.998;2022-10-31T04:43:41;101371.44;;;14.12;100.00
3142;BME280;1581;51.568;6.998;2022-10-31T04:46:09;101369.72;;;14.04;100.00
3142;BME280;1581;51.568;6.998;2022-10-31T04:48:36;101367.66;;;14.06;100.00
3142;BME280;1581;51.568;6.998;2022-10-31T04:51:04;101361.91;;;14.09;100.00
3142;BME280;1581;51.568;6.998;2022-10-31T04:53:33;101362.38;;;14.13;100.00
3142;BME280;1581;51.568;6.998;2022-10-31T04:56:01;101354.97;;;14.15;100.00
3142;BME280;1581;51.568;6.998;2022-10-31T04:58:28;101356.22;;;14.12;100.00
3142;BME280;1581;51.568;6.998;2022-10-31T05:00:56;101358.69;;;14.14;100.00
3142;BME280;1581;51.568;6.998;2022-10-31T05:03:24;101356.44;;;14.17;100.00
3142;BME280;1581;51.568;6.998;2022-10-31T05:05:51;101351.72;;;14.19;100.00
3142;BME280;1581;51.568;6.998;2022-10-31T05:08:19;101363.25;;;14.20;100.00
3142;BME280;1581;51.568;6.998;2022-10-31T05:10:48;101359.31;;;14.16;100.00
3142;BME280;1581;51.568;6.998;2022-10-31T05:13:15;101357.22;;;14.11;100.00
3142;BME280;1581;51.568;6.998;2022-10-31T05:15:43;101353.69;;;14.11;100.00
3142;BME280;1581;51.568;6.998;2022-10-31T05:18:11;101361.91;;;14.09;100.00
3142;BME280;1581;51.568;6.998;2022-10-31T05:20:38;101360.25;;;14.08;100.00
3142;BME280;1581;51.568;6.998;2022-10-31T05:23:06;101356.34;;;14.11;100.00
3142;BME280;1581;51.568;6.998;2022-10-31T05:25:33;101349.94;;;14.05;100.00
3142;BME280;1581;51.568;6.998;2022-10-31T05:28:02;101344.09;;;13.95;100.00
3142;BME280;1581;51.568;6.998;2022-10-31T05:30:31;101332.72;;;13.93;100.00
3142;BME280;1581;51.568;6.998;2022-10-31T05:32:59;101335.22;;;13.95;100.00
3142;BME280;1581;51.568;6.998;2022-10-31T05:35:30;101340.00;;;13.99;100.00
3142;BME280;1581;51.568;6.998;2022-10-31T05:37:58;101336.88;;;13.96;100.00
3142;BME280;1581;51.568;6.998;2022-10-31T05:40:27;101331.97;;;13.99;100.00
3142;BME280;1581;51.568;6.998;2022-10-31T05:42:58;101328.06;;;14.02;100.00
3142;BME280;1581;51.568;6.998;2022-10-31T05:45:27;101326.81;;;14.04;100.00
3142;BME280;1581;51.568;6.998;2022-10-31T05:47:56;101332.41;;;14.03;100.00
3142;BME280;1581;51.568;6.998;2022-10-31T05:50:25;101326.31;;;13.88;100.00
3142;BME280;1581;51.568;6.998;2022-10-31T05:52:58;101328.81;;;13.89;100.00
3142;BME280;1581;51.568;6.998;2022-10-31T05:55:27;101341.19;;;13.90;100.00
3142;BME280;1581;51.568;6.998;2022-10-31T05:57:55;101333.31;;;13.89;100.00
3142;BME280;1581;51.568;6.998;2022-10-31T06:00:27;101337.47;;;13.91;100.00
3142;BME280;1581;51.568;6.998;2022-10-31T06:02:59;101333.75;;;13.92;100.00
3142;BME280;1581;51.568;6.998;2022-10-31T06:05:26;101335.38;;;13.87;100.00
3142;BME280;1581;51.568;6.998;2022-10-31T06:07:54;101330.91;;;13.94;100.00
3142;BME280;1581;51.568;6.998;2022-10-31T06:10:21;101328.84;;;13.96;100.00
3142;BME280;1581;51.568;6.998;2022-10-31T06:12:49;101326.78;;;13.98;100.00
3142;BME280;1581;51.568;6.998;2022-10-31T06:15:17;101326.75;;;13.91;100.00
3142;BME280;1581;51.568;6.998;2022-10-31T06:17:46;101329.81;;;13.88;100.00
3142;BME280;1581;51.568;6.998;2022-10-31T06:20:14;101332.72;;;13.93;100.00
3142;BME280;1581;51.568;6.998;2022-10-31T06:22:42;101338.72;;;13.95;100.00
3142;BME280;1581;51.568;6.998;2022-10-31T06:25:09;101331.47;;;13.89;100.00
3142;BME280;1581;51.568;6.998;2022-10-31T06:27:37;101333.31;;;13.89;100.00
3142;BME280;1581;51.568;6.998;2022-10-31T06:30:06;101334.16;;;13.89;100.00
3142;BME280;1581;51.568;6.998;2022-10-31T06:32:33;101332.72;;;13.87;100.00
3142;BME280;1581;51.568;6.998;2022-10-31T06:35:03;101332.25;;;13.83;100.00
3142;BME280;1581;51.568;6.998;2022-10-31T06:37:30;101327.53;;;13.85;100.00
3142;BME280;1581;51.568;6.998;2022-10-31T06:39:58;101334.94;;;13.83;100.00
3142;BME280;1581;51.568;6.998;2022-10-31T06:42:27;101340.28;;;13.83;100.00
3142;BME280;1581;51.568;6.998;2022-10-31T06:44:55;101339.09;;;13.86;100.00
3142;BME280;1581;51.568;6.998;2022-10-31T06:47:23;101338.88;;;13.87;100.00
3142;BME280;1581;51.568;6.998;2022-10-31T06:49:50;101334.22;;;13.96;100.00
3142;BME280;1581;51.568;6.998;2022-10-31T06:52:19;101342.47;;;14.01;100.00
3142;BME280;1581;51.568;6.998;2022-10-31T06:54:49;101343.50;;;14.00;100.00
3142;BME280;1581;51.568;6.998;2022-10-31T06:57:16;101347.66;;;14.02;100.00
3142;BME280;1581;51.568;6.998;2022-10-31T06:59:44;101353.84;;;14.03;100.00
3142;BME280;1581;51.568;6.998;2022-10-31T07:02:12;101350.09;;;13.97;100.00
3142;BME280;1581;51.568;6.998;2022-10-31T07:04:39;101348.69;;;14.01;100.00
3142;BME280;1581;51.568;6.998;2022-10-31T07:07:06;101349.53;;;14.08;100.00
3142;BME280;1581;51.568;6.998;2022-10-31T07:09:36;101348.31;;;14.11;100.00
3142;BME280;1581;51.568;6.998;2022-10-31T07:12:04;101352.09;;;14.16;100.00
3142;BME280;1581;51.568;6.998;2022-10-31T07:14:31;101355.03;;;14.21;100.00
3142;BME280;1581;51.568;6.998;2022-10-31T07:16:59;101358.56;;;14.28;100.00
3142;BME280;1581;51.568;6.998;2022-10-31T07:19:26;101360.63;;;14.26;100.00
3142;BME280;1581;51.568;6.998;2022-10-31T07:21:54;101359.97;;;14.24;100.00
3142;BME280;1581;51.568;6.998;2022-10-31T07:24:22;101366.19;;;14.25;100.00
3142;BME280;1581;51.568;6.998;2022-10-31T07:26:51;101362.91;;;14.29;100.00
3142;BME280;1581;51.568;6.998;2022-10-31T07:29:18;101368.91;;;14.38;100.00
3142;BME280;1581;51.568;6.998;2022-10-31T07:31:46;101359.66;;;14.40;100.00
3142;BME280;1581;51.568;6.998;2022-10-31T07:34:14;101362.09;;;14.35;100.00
3142;BME280;1581;51.568;6.998;2022-10-31T07:36:41;101359.25;;;14.37;100.00
3142;BME280;1581;51.568;6.998;2022-10-31T07:39:09;101358.88;;;14.46;100.00
3142;BME280;1581;51.568;6.998;2022-10-31T07:41:39;101355.97;;;14.41;100.00
3142;BME280;1581;51.568;6.998;2022-10-31T07:44:08;101351.03;;;14.45;100.00
3142;BME280;1581;51.568;6.998;2022-10-31T07:46:36;101359.50;;;14.48;100.00
3142;BME280;1581;51.568;6.998;2022-10-31T07:49:03;101357.50;;;14.57;100.00
3142;BME280;1581;51.568;6.998;2022-10-31T07:51:31;101359.97;;;14.58;100.00
3142;BME280;1581;51.568;6.998;2022-10-31T07:53:59;101352.72;;;14.59;100.00
3142;BME280;1581;51.568;6.998;2022-10-31T07:56:27;101353.19;;;14.68;100.00
3142;BME280;1581;51.568;6.998;2022-10-31T07:58:54;101353.22;;;14.75;100.00
3142;BME280;1581;51.568;6.998;2022-10-31T08:01:23;101354.91;;;14.82;100.00
3142;BME280;1581;51.568;6.998;2022-10-31T08:03:51;101351.19;;;14.83;100.00
3142;BME280;1581;51.568;6.998;2022-10-31T08:06:18;101358.69;;;15.01;100.00
3142;BME280;1581;51.568;6.998;2022-10-31T08:08:46;101359.09;;;14.98;100.00
3142;BME280;1581;51.568;6.998;2022-10-31T08:11:13;101362.22;;;15.08;100.00
3142;BME280;1581;51.568;6.998;2022-10-31T08:13:41;101361.81;;;15.11;100.00
3142;BME280;1581;51.568;6.998;2022-10-31T08:16:08;101351.50;;;15.14;100.00
3142;BME280;1581;51.568;6.998;2022-10-31T08:18:38;101350.88;;;15.19;100.00
3142;BME280;1581;51.568;6.998;2022-10-31T08:21:06;101359.00;;;15.25;100.00
3142;BME280;1581;51.568;6.998;2022-10-31T08:23:34;101369.50;;;15.27;100.00
3142;BME280;1581;51.568;6.998;2022-10-31T08:26:01;101365.81;;;15.28;100.00
3142;BME280;1581;51.568;6.998;2022-10-31T08:28:29;101362.09;;;15.35;100.00
3142;BME280;1581;51.568;6.998;2022-10-31T08:30:58;101364.59;;;15.43;100.00
3142;BME280;1581;51.568;6.998;2022-10-31T08:33:25;101362.94;;;15.49;100.00
3142;BME280;1581;51.568;6.998;2022-10-31T08:35:54;101362.53;;;15.52;100.00
3142;BME280;1581;51.568;6.998;2022-10-31T08:38:22;101362.97;;;15.61;100.00
3142;BME280;1581;51.568;6.998;2022-10-31T08:40:50;101364.59;;;15.69;100.00
3142;BME280;1581;51.568;6.998;2022-10-31T08:43:18;101358.41;;;15.68;100.00
3142;BME280;1581;51.568;6.998;2022-10-31T08:45:49;101367.69;;;15.72;100.00
3142;BME280;1581;51.568;6.998;2022-10-31T08:48:17;101365.84;;;15.79;100.00
3142;BME280;1581;51.568;6.998;2022-10-31T08:50:45;101360.25;;;15.81;100.00
3142;BME280;1581;51.568;6.998;2022-10-31T08:53:16;101349.91;;;15.84;100.00
3142;BME280;1581;51.568;6.998;2022-10-31T08:55:46;101349.28;;;15.82;100.00
3142;BME280;1581;51.568;6.998;2022-10-31T08:58:16;101339.16;;;15.84;100.00
3142;BME280;1581;51.568;6.998;2022-10-31T09:00:44;101341.03;;;15.90;100.00
3142;BME280;1581;51.568;6.998;2022-10-31T09:03:14;101333.38;;;15.94;100.00
3142;BME280;1581;51.568;6.998;2022-10-31T09:05:43;101336.25;;;15.92;100.00
3142;BME280;1581;51.568;6.998;2022-10-31T09:08:14;101335.84;;;16.02;100.00
3142;BME280;1581;51.568;6.998;2022-10-31T09:10:42;101339.34;;;16.02;100.00
3142;BME280;1581;51.568;6.998;2022-10-31T09:13:12;101333.56;;;16.05;100.00
3142;BME280;1581;51.568;6.998;2022-10-31T09:15:43;101332.75;;;16.11;100.00
3142;BME280;1581;51.568;6.998;2022-10-31T09:18:12;101333.34;;;16.13;100.00
3142;BME280;1581;51.568;6.998;2022-10-31T09:20:42;101323.81;;;16.17;100.00
3142;BME280;1581;51.568;6.998;2022-10-31T09:23:12;101330.41;;;16.28;100.00
3142;BME280;1581;51.568;6.998;2022-10-31T09:25:41;101330.22;;;16.29;100.00
3142;BME280;1581;51.568;6.998;2022-10-31T09:28:11;101323.81;;;16.37;100.00
3142;BME280;1581;51.568;6.998;2022-10-31T09:30:40;101326.25;;;16.44;100.00
3142;BME280;1581;51.568;6.998;2022-10-31T09:33:11;101324.38;;;16.51;100.00
3142;BME280;1581;51.568;6.998;2022-10-31T09:35:40;101321.88;;;16.56;100.00
3142;BME280;1581;51.568;6.998;2022-10-31T09:38:11;101312.94;;;16.62;100.00
3142;BME280;1581;51.568;6.998;2022-10-31T09:40:44;101306.91;;;16.67;100.00
3142;BME280;1581;51.568;6.998;2022-10-31T09:43:18;101308.94;;;16.78;100.00
3142;BME280;1581;51.568;6.998;2022-10-31T09:46:00;101294.41;;;16.85;100.00
3142;BME280;1581;51.568;6.998;2022-10-31T09:48:45;101308.78;;;17.04;100.00
3142;BME280;1581;51.568;6.998;2022-10-31T09:51:20;101295.66;;;17.14;100.00
3142;BME280;1581;51.568;6.998;2022-10-31T09:54:10;101300.34;;;17.24;100.00
3142;BME280;1581;51.568;6.998;2022-10-31T09:56:41;101294.94;;;17.31;100.00
3142;BME280;1581;51.568;6.998;2022-10-31T09:59:20;101291.94;;;17.45;100.00
3142;BME280;1581;51.568;6.998;2022-10-31T10:01:54;101301.75;;;17.58;100.00
3142;BME280;1581;51.568;6.998;2022-10-31T10:04:39;101292.22;;;17.62;100.00
3142;BME280;1581;51.568;6.998;2022-10-31T10:07:19;101292.91;;;17.75;100.00
3142;BME280;1581;51.568;6.998;2022-10-31T10:09:48;101289.03;;;17.71;100.00
3142;BME280;1581;51.568;6.998;2022-10-31T10:12:33;101279.88;;;17.72;100.00
3142;BME280;1581;51.568;6.998;2022-10-31T10:15:30;101279.53;;;17.87;100.00
3142;BME280;1581;51.568;6.998;2022-10-31T10:18:09;101280.13;;;17.89;100.00
3142;BME280;1581;51.568;6.998;2022-10-31T10:20:46;101273.16;;;17.81;100.00
3142;BME280;1581;51.568;6.998;2022-10-31T10:23:45;101268.84;;;18.16;100.00
3142;BME280;1581;51.568;6.998;2022-10-31T10:26:20;101264.91;;;18.36;100.00
3142;BME280;1581;51.568;6.998;2022-10-31T10:28:54;101268.09;;;18.45;100.00
3142;BME280;1581;51.568;6.998;2022-10-31T10:31:26;101270.78;;;18.45;100.00
3142;BME280;1581;51.568;6.998;2022-10-31T10:34:02;101264.78;;;18.43;100.00
3142;BME280;1581;51.568;6.998;2022-10-31T10:36:38;101270.13;;;18.49;100.00
3142;BME280;1581;51.568;6.998;2022-10-31T10:39:16;101271.44;;;18.58;100.00
3142;BME280;1581;51.568;6.998;2022-10-31T10:41:48;101267.09;;;18.57;100.00
3142;BME280;1581;51.568;6.998;2022-10-31T10:44:31;101259.97;;;18.63;100.00
3142;BME280;1581;51.568;6.998;2022-10-31T10:47:17;101246.69;;;18.61;100.00
3142;BME280;1581;51.568;6.998;2022-10-31T10:50:10;101249.59;;;18.78;100.00
3142;BME280;1581;51.568;6.998;2022-10-31T10:52:48;101247.88;;;18.95;100.00
3142;BME280;1581;51.568;6.998;2022-10-31T10:55:29;101245.22;;;19.06;100.00
3142;BME280;1581;51.568;6.998;2022-10-31T10:58:05;101239.59;;;19.07;100.00
3142;BME280;1581;51.568;6.998;2022-10-31T11:00:40;101241.69;;;19.05;100.00
3142;BME280;1581;51.568;6.998;2022-10-31T11:03:13;101229.81;;;19.06;100.00
3142;BME280;1581;51.568;6.998;2022-10-31T11:05:46;101221.13;;;19.04;100.00
3142;BME280;1581;51.568;6.998;2022-10-31T11:08:24;101213.63;;;19.06;100.00
3142;BME280;1581;51.568;6.998;2022-10-31T11:11:01;101218.78;;;19.08;100.00
3142;BME280;1581;51.568;6.998;2022-10-31T11:13:30;101200.72;;;19.08;100.00
3142;BME280;1581;51.568;6.998;2022-10-31T11:16:04;101199.69;;;19.21;100.00
3142;BME280;1581;51.568;6.998;2022-10-31T11:18:38;101191.03;;;19.30;100.00
3142;BME280;1581;51.568;6.998;2022-10-31T11:21:21;101174.19;;;19.40;100.00
3142;BME280;1581;51.568;6.998;2022-10-31T11:24:02;101181.59;;;19.44;100.00
3142;BME280;1581;51.568;6.998;2022-10-31T11:26:30;101174.22;;;19.51;100.00
3142;BME280;1581;51.568;6.998;2022-10-31T11:29:01;101179.16;;;19.66;100.00
3142;BME280;1581;51.568;6.998;2022-10-31T11:31:31;101169.72;;;19.68;100.00
3142;BME280;1581;51.568;6.998;2022-10-31T11:34:01;101163.84;;;19.71;100.00
3142;BME280;1581;51.568;6.998;2022-10-31T11:36:33;101155.16;;;19.69;100.00
3142;BME280;1581;51.568;6.998;2022-10-31T11:39:04;101152.44;;;19.69;100.00
3142;BME280;1581;51.568;6.998;2022-10-31T11:41:34;101153.25;;;19.70;100.00
3142;BME280;1581;51.568;6.998;2022-10-31T11:44:10;101147.63;;;19.71;100.00
3142;BME280;1581;51.568;6.998;2022-10-31T11:46:43;101158.66;;;19.81;100.00
3142;BME280;1581;51.568;6.998;2022-10-31T11:49:20;101150.63;;;19.97;100.00
3142;BME280;1581;51.568;6.998;2022-10-31T11:51:55;101155.56;;;20.00;100.00
3142;BME280;1581;51.568;6.998;2022-10-31T11:54:27;101158.59;;;20.04;100.00
3142;BME280;1581;51.568;6.998;2022-10-31T11:56:56;101156.44;;;20.17;100.00
3142;BME280;1581;51.568;6.998;2022-10-31T11:59:28;101153.00;;;20.22;100.00
3142;BME280;1581;51.568;6.998;2022-10-31T12:02:01;101139.00;;;20.25;100.00
3142;BME280;1581;51.568;6.998;2022-10-31T12:04:36;101122.75;;;20.25;100.00
3142;BME280;1581;51.568;6.998;2022-10-31T12:07:06;101111.47;;;20.28;100.00
3142;BME280;1581;51.568;6.998;2022-10-31T12:09:36;101126.88;;;20.27;100.00
3142;BME280;1581;51.568;6.998;2022-10-31T12:12:30;101136.97;;;20.32;100.00
3142;BME280;1581;51.568;6.998;2022-10-31T12:15:17;101128.84;;;20.32;100.00
3142;BME280;1581;51.568;6.998;2022-10-31T12:17:55;101132.41;;;20.32;100.00
3142;BME280;1581;51.568;6.998;2022-10-31T12:20:44;101116.97;;;20.33;100.00
3142;BME280;1581;51.568;6.998;2022-10-31T12:23:24;101102.88;;;20.31;100.00
3142;BME280;1581;51.568;6.998;2022-10-31T12:26:01;101088.16;;;20.27;100.00
3142;BME280;1581;51.568;6.998;2022-10-31T12:29:17;101089.22;;;20.26;100.00
3142;BME280;1581;51.568;6.998;2022-10-31T12:32:00;101085.84;;;20.19;100.00
3142;BME280;1581;51.568;6.998;2022-10-31T12:35:29;101090.03;;;20.10;100.00
3142;BME280;1581;51.568;6.998;2022-10-31T12:38:52;101075.25;;;20.01;100.00
3142;BME280;1581;51.568;6.998;2022-10-31T12:41:58;101081.78;;;20.05;100.00
3142;BME280;1581;51.568;6.998;2022-10-31T12:44:57;101073.88;;;20.15;100.00
3142;BME280;1581;51.568;6.998;2022-10-31T12:51:02;101060.06;;;20.44;100.00
3142;BME280;1581;51.568;6.998;2022-10-31T12:53:59;101061.44;;;20.47;100.00
3142;BME280;1581;51.568;6.998;2022-10-31T12:57:02;101042.03;;;20.50;100.00
3142;BME280;1581;51.568;6.998;2022-10-31T13:00:04;101031.34;;;20.60;100.00
3142;BME280;1581;51.568;6.998;2022-10-31T13:03:25;101033.38;;;20.69;100.00
3142;BME280;1581;51.568;6.998;2022-10-31T13:06:18;101017.97;;;20.53;100.00
3142;BME280;1581;51.568;6.998;2022-10-31T13:09:10;101011.41;;;20.66;100.00
3142;BME280;1581;51.568;6.998;2022-10-31T13:11:56;101008.25;;;20.74;100.00
3142;BME280;1581;51.568;6.998;2022-10-31T13:14:57;101000.41;;;20.88;100.00
3142;BME280;1581;51.568;6.998;2022-10-31T13:17:37;101000.78;;;20.97;100.00
3142;BME280;1581;51.568;6.998;2022-10-31T13:20:28;100987.63;;;21.05;100.00
3142;BME280;1581;51.568;6.998;2022-10-31T13:26:14;100988.91;;;21.19;100.00
3142;BME280;1581;51.568;6.998;2022-10-31T13:29:02;100986.69;;;21.16;100.00
3142;BME280;1581;51.568;6.998;2022-10-31T13:32:11;100975.09;;;20.99;100.00
3142;BME280;1581;51.568;6.998;2022-10-31T13:35:18;100950.41;;;20.96;100.00
3142;BME280;1581;51.568;6.998;2022-10-31T13:38:29;100933.47;;;20.89;100.00
3142;BME280;1581;51.568;6.998;2022-10-31T13:41:28;100929.13;;;20.72;100.00